Time,TemperatureF,DewpointF,PressureIn,WindDirection,WindDirectionDegrees,WindSpeedMPH,WindSpeedGustMPH,Humidity,HourlyPrecipIn,Conditions,Clouds,dailyrainin,SoftwareType,DateUTC
2013-02-05 00:00:00,24.1,21.8,28.63,South,177,6.0,10.0,91,0.00,CLR,,0.00,WeatherDisplay:10.37,2013-02-05 06:00:00,
2013-02-05 00:15:00,23.5,21.5,28.63,South,176,6.0,9.0,92,0.00,CLR,,0.00,WeatherDisplay:10.37,2013-02-05 06:15:00,
2013-02-05 00:30:00,23.5,21.8,28.63,South,171,7.0,10.0,93,0.00,CLR,,0.00,WeatherDisplay:10.37,2013-02-05 06:30:00,
2013-02-05 00:45:00,23.0,21.3,28.62,SSE,149,7.0,10.0,93,0.00,CLR,,0.00,WeatherDisplay:10.37,2013-02-05 06:45:00,
2013-02-05 01:00:00,23.2,21.7,28.62,SSE,163,6.0,11.0,94,0.00,CLR,,0.00,WeatherDisplay:10.37,2013-02-05 07:00:00,
2013-02-05 01:15:00,22.5,21.0,28.61,SSE,168,7.0,10.0,94,0.00,CLR,,0.00,WeatherDisplay:10.37,2013-02-05 07:15:00,
2013-02-05 01:30:00,23.0,21.8,28.61,SSE,165,7.0,9.0,95,0.00,CLR,,0.00,WeatherDisplay:10.37,2013-02-05 07:30:00,
2013-02-05 01:45:00,23.0,21.8,28.61,SSE,163,7.0,12.0,95,0.00,CLR,,0.00,WeatherDisplay:10.37,2013-02-05 07:45:00,
2013-02-05 02:00:00,23.2,22.0,28.61,SSE,164,8.0,11.0,95,0.00,CLR,,0.00,WeatherDisplay:10.37,2013-02-05 08:00:00,
2013-02-05 02:15:00,23.0,21.8,28.60,SSE,147,6.0,10.0,95,0.00,CLR,,0.00,WeatherDisplay:10.37,2013-02-05 08:15:00,
2013-02-05 02:30:00,22.8,21.9,28.61,South,172,6.0,9.0,96,0.00,CLR,,0.00,WeatherDisplay:10.37,2013-02-05 08:30:00,
2013-02-05 02:45:00,22.3,21.3,28.61,SSE,168,5.0,8.0,96,0.00,CLR,,0.00,WeatherDisplay:10.37,2013-02-05 08:45:00,
2013-02-05 03:00:00,23.0,22.0,28.60,SSE,162,5.0,11.0,96,0.00,CLR,,0.00,WeatherDisplay:10.37,2013-02-05 09:00:00,
2013-02-05 03:15:00,22.8,21.9,28.60,SSW,192,5.0,8.0,96,0.00,CLR,,0.00,WeatherDisplay:10.37,2013-02-05 09:15:00,
2013-02-05 03:30:00,22.3,21.3,28.60,South,180,3.0,8.0,96,0.00,CLR,,0.00,WeatherDisplay:10.37,2013-02-05 09:30:00,
2013-02-05 03:45:00,21.4,20.4,28.60,South,180,3.0,6.0,96,0.00,CLR,,0.00,WeatherDisplay:10.37,2013-02-05 09:45:00,
2013-02-05 04:00:00,22.4,21.9,28.59,South,173,3.0,7.0,98,0.00,CLR,,0.00,WeatherDisplay:10.37,2013-02-05 10:00:00,
2013-02-05 04:15:00,23.9,23.4,28.58,SSE,158,2.0,6.0,98,0.00,CLR,,0.00,WeatherDisplay:10.37,2013-02-05 10:15:00,
2013-02-05 04:30:00,24.3,23.5,28.58,South,180,3.0,7.0,97,0.00,CLR,,0.00,WeatherDisplay:10.37,2013-02-05 10:30:00,
2013-02-05 04:45:00,25.2,24.4,28.60,SSE,163,2.0,7.0,97,0.00,CLR,,0.00,WeatherDisplay:10.37,2013-02-05 10:45:00,
2013-02-05 05:00:00,25.5,24.5,28.60,SSE,151,1.0,6.0,96,0.00,CLR,,0.00,WeatherDisplay:10.37,2013-02-05 11:00:00,
2013-02-05 05:15:00,25.9,24.9,28.60,SSE,151,1.0,2.0,96,0.00,CLR,,0.00,WeatherDisplay:10.37,2013-02-05 11:15:00,
2013-02-05 05:30:00,26.0,24.8,28.60,SSW,202,1.0,5.0,95,0.00,CLR,,0.00,WeatherDisplay:10.37,2013-02-05 11:30:00,
2013-02-05 05:45:00,25.2,23.9,28.60,South,184,1.0,3.0,95,0.00,CLR,,0.00,WeatherDisplay:10.37,2013-02-05 11:45:00,
2013-02-05 06:00:00,25.0,23.8,28.61,SW,229,1.0,3.0,95,0.00,CLR,,0.00,WeatherDisplay:10.37,2013-02-05 12:00:00,
2013-02-05 06:15:00,24.4,23.2,28.61,SW,235,0.0,5.0,95,0.00,CLR,,0.00,WeatherDisplay:10.37,2013-02-05 12:15:00,
2013-02-05 06:30:00,23.0,21.5,28.62,ESE,108,2.0,4.0,94,0.00,CLR,,0.00,WeatherDisplay:10.37,2013-02-05 12:30:00,
2013-02-05 06:45:00,24.6,23.9,28.62,WNW,294,0.0,3.0,97,0.00,CLR,,0.00,WeatherDisplay:10.37,2013-02-05 12:45:00,
2013-02-05 07:00:00,26.6,25.9,28.63,NW,312,2.0,4.0,97,0.00,CLR,,0.00,WeatherDisplay:10.37,2013-02-05 13:00:00,
2013-02-05 07:15:00,29.1,27.6,28.63,NW,311,3.0,6.0,94,0.00,CLR,,0.00,WeatherDisplay:10.37,2013-02-05 13:15:00,
2013-02-05 07:30:00,30.1,27.8,28.65,NW,312,3.0,6.0,91,0.00,CLR,,0.00,WeatherDisplay:10.37,2013-02-05 13:30:00,
2013-02-05 07:45:00,29.7,27.1,28.66,NW,315,2.0,5.0,90,0.00,CLR,,0.00,WeatherDisplay:10.37,2013-02-05 13:45:00,
2013-02-05 08:00:00,30.9,28.1,28.67,NW,315,2.0,5.0,89,0.00,CLR,,0.00,WeatherDisplay:10.37,2013-02-05 14:00:00,
2013-02-05 08:15:00,32.4,28.6,28.68,NW,311,2.0,4.0,86,0.00,CLR,,0.00,WeatherDisplay:10.37,2013-02-05 14:15:00,
2013-02-05 08:30:00,33.6,29.3,28.70,NW,320,2.0,4.0,84,0.00,CLR,,0.00,WeatherDisplay:10.37,2013-02-05 14:30:00,
2013-02-05 08:45:00,36.0,31.4,28.71,WNW,285,1.0,3.0,83,0.00,CLR,,0.00,WeatherDisplay:10.37,2013-02-05 14:45:00,
2013-02-05 09:00:00,37.3,31.7,28.72,WNW,300,1.0,5.0,80,0.00,CLR,,0.00,WeatherDisplay:10.37,2013-02-05 15:00:00,
2013-02-05 09:15:00,38.8,32.6,28.73,WNW,299,1.0,4.0,78,0.00,CLR,,0.00,WeatherDisplay:10.37,2013-02-05 15:15:00,
2013-02-05 09:30:00,40.1,33.1,28.74,NW,320,2.0,5.0,76,0.00,CLR,,0.00,WeatherDisplay:10.37,2013-02-05 15:30:00,
2013-02-05 09:45:00,42.1,34.4,28.74,NW,313,5.0,8.0,74,0.00,CLR,,0.00,WeatherDisplay:10.37,2013-02-05 15:45:00,
2013-02-05 10:00:00,42.1,33.4,28.75,NW,322,6.0,12.0,71,0.00,CLR,,0.00,WeatherDisplay:10.37,2013-02-05 16:00:00,
2013-02-05 10:15:00,42.3,33.5,28.76,NW,326,6.0,10.0,71,0.00,CLR,,0.00,WeatherDisplay:10.37,2013-02-05 16:15:00,
2013-02-05 10:30:00,43.0,33.5,28.77,NNW,340,6.0,11.0,69,0.00,CLR,,0.00,WeatherDisplay:10.37,2013-02-05 16:30:00,
2013-02-05 10:45:00,43.5,33.7,28.78,NW,323,5.0,11.0,68,0.00,CLR,,0.00,WeatherDisplay:10.37,2013-02-05 16:45:00,
2013-02-05 11:00:00,43.9,33.6,28.78,NW,324,5.0,11.0,67,0.00,CLR,,0.00,WeatherDisplay:10.37,2013-02-05 17:00:00,
2013-02-05 11:15:00,44.2,33.6,28.79,NW,321,5.0,9.0,66,0.00,CLR,,0.00,WeatherDisplay:10.37,2013-02-05 17:15:00,
2013-02-05 11:30:00,44.7,33.7,28.80,NW,315,6.0,12.0,65,0.00,CLR,,0.00,WeatherDisplay:10.37,2013-02-05 17:30:00,
2013-02-05 11:45:00,44.8,33.3,28.81,NW,321,6.0,12.0,64,0.00,CLR,,0.00,WeatherDisplay:10.37,2013-02-05 17:45:00,
2013-02-05 12:00:00,45.0,33.2,28.80,NW,324,7.0,13.0,63,0.00,CLR,,0.00,WeatherDisplay:10.37,2013-02-05 18:00:00,
2013-02-05 12:15:00,45.5,33.6,28.80,NNW,330,5.0,10.0,63,0.00,CLR,,0.00,WeatherDisplay:10.37,2013-02-05 18:15:00,
2013-02-05 12:30:00,45.9,33.6,28.80,NNW,331,6.0,13.0,62,0.00,CLR,,0.00,WeatherDisplay:10.37,2013-02-05 18:30:00,
2013-02-05 12:45:00,46.0,33.3,28.80,NNW,337,6.0,13.0,61,0.00,CLR,,0.00,WeatherDisplay:10.37,2013-02-05 18:45:00,
2013-02-05 13:00:00,46.9,34.2,28.80,NW,319,6.0,12.0,61,0.00,CLR,,0.00,WeatherDisplay:10.37,2013-02-05 19:00:00,
2013-02-05 13:15:00,47.3,34.1,28.81,NW,326,5.0,10.0,60,0.00,CLR,,0.00,WeatherDisplay:10.37,2013-02-05 19:15:00,
2013-02-05 13:30:00,45.4,33.1,28.81,NW,319,5.0,8.0,62,0.00,CLR,,0.00,WeatherDisplay:10.37,2013-02-05 19:30:00,
2013-02-05 13:45:00,46.8,34.1,28.81,NW,322,5.0,8.0,61,0.00,CLR,,0.00,WeatherDisplay:10.37,2013-02-05 19:45:00,
2013-02-05 14:00:00,48.9,34.8,28.81,NW,325,5.0,9.0,58,0.00,CLR,,0.00,WeatherDisplay:10.37,2013-02-05 20:00:00,
2013-02-05 14:15:00,48.7,33.7,28.81,NW,323,5.0,9.0,56,0.00,CLR,,0.00,WeatherDisplay:10.37,2013-02-05 20:15:00,
2013-02-05 14:30:00,45.7,32.2,28.80,NNW,347,3.0,8.0,59,0.00,CLR,,0.00,WeatherDisplay:10.37,2013-02-05 20:30:00,
2013-02-05 14:45:00,44.1,32.3,28.81,NNW,334,5.0,10.0,63,0.00,CLR,,0.00,WeatherDisplay:10.37,2013-02-05 20:45:00,
2013-02-05 15:00:00,42.8,32.2,28.81,NNW,336,3.0,8.0,66,0.00,CLR,,0.00,WeatherDisplay:10.37,2013-02-05 21:00:00,
2013-02-05 15:15:00,42.6,32.4,28.81,NNW,327,3.0,6.0,67,0.00,CLR,,0.00,WeatherDisplay:10.37,2013-02-05 21:15:00,
2013-02-05 15:30:00,46.0,34.1,28.82,NNW,336,3.0,7.0,63,0.00,CLR,,0.00,WeatherDisplay:10.37,2013-02-05 21:30:00,
2013-02-05 15:45:00,43.6,31.9,28.81,NNW,338,3.0,8.0,63,0.00,CLR,,0.00,WeatherDisplay:10.37,2013-02-05 21:45:00,
2013-02-05 16:00:00,43.7,32.3,28.82,NW,325,3.0,8.0,64,0.00,CLR,,0.00,WeatherDisplay:10.37,2013-02-05 22:00:00,
2013-02-05 16:15:00,44.1,31.9,28.82,North,1,2.0,7.0,62,0.00,CLR,,0.00,WeatherDisplay:10.37,2013-02-05 22:15:00,
2013-02-05 16:30:00,42.3,32.9,28.83,NNW,347,2.0,6.0,69,0.00,CLR,,0.00,WeatherDisplay:10.37,2013-02-05 22:30:00,
2013-02-05 16:45:00,41.2,32.5,28.83,North,1,2.0,15.0,71,0.00,CLR,,0.00,WeatherDisplay:10.37,2013-02-05 22:45:00,
2013-02-05 17:00:00,39.3,31.7,28.83,North,5,8.0,12.0,74,0.00,CLR,,0.00,WeatherDisplay:10.37,2013-02-05 23:00:00,
2013-02-05 17:15:00,37.9,31.4,28.84,NNE,15,6.0,12.0,77,0.00,CLR,,0.00,WeatherDisplay:10.37,2013-02-05 23:15:00,
2013-02-05 17:30:00,37.2,31.0,28.84,NNE,13,8.0,13.0,78,0.00,CLR,,0.00,WeatherDisplay:10.37,2013-02-05 23:30:00,
2013-02-05 17:45:00,35.2,30.0,28.84,NNE,13,7.0,13.0,81,0.00,CLR,,0.00,WeatherDisplay:10.37,2013-02-05 23:45:00,
2013-02-05 18:00:00,34.2,29.8,28.85,NNE,13,6.0,9.0,84,0.00,CLR,,0.00,WeatherDisplay:10.37,2013-02-06 00:00:00,
2013-02-05 18:15:00,33.4,29.4,28.85,NNE,29,5.0,7.0,85,0.00,CLR,,0.00,WeatherDisplay:10.37,2013-02-06 00:15:00,
2013-02-05 18:30:00,32.7,29.3,28.85,North,7,5.0,7.0,87,0.00,CLR,,0.00,WeatherDisplay:10.37,2013-02-06 00:30:00,
2013-02-05 18:45:00,31.8,28.7,28.86,NNE,19,3.0,6.0,88,0.00,CLR,,0.00,WeatherDisplay:10.37,2013-02-06 00:45:00,
2013-02-05 19:00:00,31.5,28.3,28.86,North,9,3.0,5.0,88,0.00,CLR,,0.00,WeatherDisplay:10.37,2013-02-06 01:00:00,
2013-02-05 19:15:00,30.5,27.1,28.86,NNW,342,1.0,5.0,87,0.00,CLR,,0.00,WeatherDisplay:10.37,2013-02-06 01:15:00,
2013-02-05 19:30:00,29.6,26.5,28.86,WSW,256,0.0,2.0,88,0.00,CLR,,0.00,WeatherDisplay:10.37,2013-02-06 01:30:00,
2013-02-05 19:45:00,29.8,27.3,28.88,West,279,1.0,2.0,90,0.00,CLR,,0.00,WeatherDisplay:10.37,2013-02-06 01:45:00,
2013-02-05 20:00:00,28.8,25.9,28.88,WSW,255,1.0,3.0,89,0.00,CLR,,0.00,WeatherDisplay:10.37,2013-02-06 02:00:00,
2013-02-05 20:15:00,28.9,26.9,28.88,WNW,283,1.0,2.0,92,0.00,CLR,,0.00,WeatherDisplay:10.37,2013-02-06 02:15:00,
2013-02-05 20:30:00,28.0,25.7,28.88,SSW,197,0.0,2.0,91,0.00,CLR,,0.00,WeatherDisplay:10.37,2013-02-06 02:30:00,
2013-02-05 20:45:00,27.1,25.0,28.88,South,180,0.0,2.0,92,0.00,CLR,,0.00,WeatherDisplay:10.37,2013-02-06 02:45:00,
2013-02-05 21:00:00,26.8,25.0,28.88,East,81,0.0,3.0,93,0.00,CLR,,0.00,WeatherDisplay:10.37,2013-02-06 03:00:00,
2013-02-05 21:15:00,26.1,24.6,28.88,East,99,1.0,3.0,94,0.00,CLR,,0.00,WeatherDisplay:10.37,2013-02-06 03:15:00,
2013-02-05 21:30:00,25.7,24.2,28.89,NW,315,0.0,2.0,94,0.00,CLR,,0.00,WeatherDisplay:10.37,2013-02-06 03:30:00,
2013-02-05 21:45:00,25.5,24.0,28.88,SSE,161,0.0,2.0,94,0.00,CLR,,0.00,WeatherDisplay:10.37,2013-02-06 03:45:00,
2013-02-05 22:00:00,25.0,23.8,28.88,NE,45,1.0,4.0,95,0.00,CLR,,0.00,WeatherDisplay:10.37,2013-02-06 04:00:00,
2013-02-05 22:15:00,24.6,23.6,28.88,ENE,58,1.0,2.0,96,0.00,CLR,,0.00,WeatherDisplay:10.37,2013-02-06 04:15:00,
2013-02-05 22:30:00,24.6,23.6,28.88,SSE,147,1.0,2.0,96,0.00,CLR,,0.00,WeatherDisplay:10.37,2013-02-06 04:30:00,
2013-02-05 22:45:00,24.4,23.5,28.87,South,180,1.0,2.0,96,0.00,CLR,,0.00,WeatherDisplay:10.37,2013-02-06 04:45:00,
2013-02-05 23:00:00,24.7,24.0,28.87,South,178,1.0,3.0,97,0.00,CLR,,0.00,WeatherDisplay:10.37,2013-02-06 05:00:00,
2013-02-05 23:15:00,25.7,25.2,28.87,South,173,2.0,3.0,98,0.00,CLR,,0.00,WeatherDisplay:10.37,2013-02-06 05:15:00,
2013-02-05 23:30:00,26.6,26.3,28.86,SE,145,3.0,6.0,99,0.00,CLR,,0.00,WeatherDisplay:10.37,2013-02-06 05:30:00,
2013-02-05 23:45:00,27.0,26.7,28.86,SSE,155,3.0,7.0,99,0.00,CLR,,0.00,WeatherDisplay:10.37,2013-02-06 05:45:00,